Time;durP1;ratioP1;P1;durP2;ratioP2;P2;SDS_P1;SDS_P2;PMS_P1;PMS_P2;Temp;Humidity;BMP_temperature;BMP_pressure;BME280_temperature;BME280_humidity;BME280_pressure;Samples;Min_cycle;Max_cycle;Signal;HPM_P1;HPM_P2
2022/01/27 05:00:54;;;;;;;37.23;21.37;;;1.20;99.90;;;;;;5811189;23;20484;-67
2022/01/27 05:03:30;;;;;;;42.47;24.47;;;1.30;99.90;;;;;;5036771;28;20455;-67
2022/01/27 05:05:57;;;;;;;33.80;20.03;;;1.30;99.90;;;;;;5036735;28;20440;-67
2022/01/27 05:08:24;;;;;;;35.93;21.83;;;1.30;99.90;;;;;;5036435;28;20448;-67
2022/01/27 05:10:57;;;;;;;39.77;22.73;;;1.30;99.90;;;;;;5036406;28;20475;-67
2022/01/27 05:13:26;;;;;;;35.50;22.53;;;1.30;99.90;;;;;;5036933;28;20436;-67
2022/01/27 05:15:54;;;;;;;41.90;23.77;;;1.30;99.90;;;;;;5036489;28;20472;-67
2022/01/27 05:18:21;;;;;;;36.63;22.33;;;1.30;99.90;;;;;;5036162;28;20456;-67
2022/01/27 05:20:49;;;;;;;41.70;25.47;;;1.20;99.90;;;;;;5036403;28;20631;-67
2022/01/27 05:23:16;;;;;;;42.77;23.63;;;1.20;99.90;;;;;;5036458;28;20806;-67
2022/01/27 05:25:43;;;;;;;39.87;22.67;;;1.30;99.90;;;;;;5036051;28;20455;-67
2022/01/27 05:28:10;;;;;;;40.63;23.80;;;1.30;99.90;;;;;;5035763;28;20452;-68
2022/01/27 05:30:36;;;;;;;37.23;21.10;;;1.30;99.90;;;;;;5036221;28;20479;-68
2022/01/27 05:33:05;;;;;;;42.73;23.97;;;1.30;99.90;;;;;;5036340;28;20511;-67
2022/01/27 05:35:31;;;;;;;42.20;23.53;;;1.40;99.90;;;;;;5035911;28;20481;-67
2022/01/27 05:37:58;;;;;;;43.90;23.20;;;1.40;99.90;;;;;;5038354;28;20449;-66
2022/01/27 05:40:25;;;;;;;47.47;24.40;;;1.40;99.90;;;;;;5037379;28;20815;-67
2022/01/27 05:42:52;;;;;;;44.43;22.70;;;1.50;99.90;;;;;;5036268;28;20829;-67
2022/01/27 05:45:19;;;;;;;43.53;23.97;;;1.40;99.90;;;;;;5036118;28;20448;-66
2022/01/27 05:47:46;;;;;;;43.77;23.93;;;1.40;99.90;;;;;;5036184;28;20452;-67
2022/01/27 05:50:14;;;;;;;46.00;24.90;;;1.30;99.90;;;;;;5035629;28;20971;-68
2022/01/27 05:52:41;;;;;;;53.63;26.03;;;1.30;99.90;;;;;;5035793;28;20453;-67
2022/01/27 05:55:09;;;;;;;51.43;26.73;;;1.20;99.90;;;;;;5035942;28;20472;-67
2022/01/27 05:57:36;;;;;;;48.90;24.20;;;1.30;99.90;;;;;;5036119;28;20460;-67
2022/01/27 06:00:03;;;;;;;50.60;25.97;;;1.20;99.90;;;;;;5035729;28;20452;-67
2022/01/27 06:02:30;;;;;;;50.93;26.10;;;1.30;99.90;;;;;;5035169;28;20483;-67
2022/01/27 06:04:57;;;;;;;49.10;26.47;;;1.30;99.90;;;;;;5035659;28;20452;-66
2022/01/27 06:07:25;;;;;;;46.27;25.53;;;1.30;99.90;;;;;;5035708;28;20464;-67
2022/01/27 06:09:52;;;;;;;45.13;25.00;;;1.30;99.90;;;;;;5035819;28;20817;-67
2022/01/27 06:12:19;;;;;;;49.43;24.90;;;1.30;99.90;;;;;;5035356;28;20479;-66
2022/01/27 06:14:45;;;;;;;47.30;24.87;;;1.20;99.90;;;;;;5035601;28;20452;-67
2022/01/27 06:17:12;;;;;;;44.80;25.90;;;1.20;99.90;;;;;;5035222;28;20995;-67
2022/01/27 06:19:43;;;;;;;48.50;26.97;;;1.10;99.90;;;;;;5035452;28;20448;-66
2022/01/27 06:22:11;;;;;;;53.80;26.70;;;1.00;99.90;;;;;;5035616;28;20841;-67
2022/01/27 06:24:40;;;;;;;49.57;28.10;;;0.90;99.90;;;;;;5035154;28;20936;-67
2022/01/27 06:27:08;;;;;;;56.60;28.07;;;0.90;99.90;;;;;;5035475;28;20472;-67
2022/01/27 06:29:35;;;;;;;50.83;27.40;;;0.90;99.90;;;;;;5035363;28;20463;-67
2022/01/27 06:32:02;;;;;;;49.80;26.70;;;1.00;99.90;;;;;;5035467;28;20479;-66
2022/01/27 06:34:29;;;;;;;47.10;26.37;;;1.00;99.90;;;;;;5035235;28;20440;-67
2022/01/27 06:36:56;;;;;;;47.27;25.90;;;0.90;99.90;;;;;;5034778;28;20480;-66
2022/01/27 06:39:23;;;;;;;50.80;26.97;;;0.90;99.90;;;;;;5035255;28;20823;-67
2022/01/27 06:41:51;;;;;;;49.10;26.60;;;0.90;99.90;;;;;;5034873;28;20484;-67
2022/01/27 06:44:18;;;;;;;41.50;24.27;;;0.80;99.90;;;;;;5035048;28;20456;-67
2022/01/27 06:46:45;;;;;;;43.30;25.13;;;0.70;99.90;;;;;;5035082;28;20456;-67
2022/01/27 06:49:16;;;;;;;39.13;23.40;;;0.70;99.90;;;;;;5034240;28;20457;-66
2022/01/27 06:51:43;;;;;;;42.50;24.30;;;0.70;99.90;;;;;;5034888;28;20476;-66
2022/01/27 06:54:10;;;;;;;41.13;23.97;;;0.60;99.90;;;;;;5034656;28;20484;-67
2022/01/27 06:56:37;;;;;;;43.57;24.13;;;0.60;99.90;;;;;;5034763;28;20477;-67
2022/01/27 06:59:05;;;;;;;46.60;24.73;;;0.70;99.90;;;;;;5034684;28;20464;-68
2022/01/27 07:01:32;;;;;;;38.90;22.43;;;0.70;99.90;;;;;;5034205;28;20479;-66
2022/01/27 07:03:59;;;;;;;44.13;23.87;;;0.70;99.90;;;;;;5034444;28;20943;-67
2022/01/27 07:06:26;;;;;;;39.90;21.33;;;0.70;99.90;;;;;;5034685;28;20567;-66
2022/01/27 07:08:53;;;;;;;37.30;22.90;;;0.70;99.90;;;;;;5034645;28;20443;-67
2022/01/27 07:11:20;;;;;;;38.17;23.50;;;0.70;99.90;;;;;;5039234;28;20472;-66
2022/01/27 07:13:47;;;;;;;37.20;21.57;;;0.70;99.90;;;;;;5034193;28;20819;-67
2022/01/27 07:16:15;;;;;;;40.17;22.17;;;0.70;99.90;;;;;;5038603;28;20523;-67
2022/01/27 07:18:41;;;;;;;41.28;25.00;;;0.60;99.90;;;;;;5048084;28;20464;-67
2022/01/27 07:21:08;;;;;;;41.90;23.70;;;0.60;99.90;;;;;;5033946;28;21014;-66
2022/01/27 07:23:35;;;;;;;44.97;24.00;;;0.70;99.90;;;;;;5034010;28;20452;-67
2022/01/27 07:26:03;;;;;;;43.00;25.20;;;0.70;99.90;;;;;;5034040;28;20453;-67
2022/01/27 07:28:29;;;;;;;46.57;25.90;;;0.70;99.90;;;;;;5034066;28;20493;-67
2022/01/27 07:30:56;;;;;;;39.57;24.90;;;0.80;99.90;;;;;;5033564;28;20841;-68
2022/01/27 07:33:24;;;;;;;51.80;28.73;;;0.80;99.90;;;;;;5033781;28;20455;-67
2022/01/27 07:35:51;;;;;;;41.20;23.10;;;0.70;99.90;;;;;;5033804;28;20858;-70
2022/01/27 07:38:18;;;;;;;47.73;25.83;;;0.70;99.90;;;;;;5033855;28;20456;-67
2022/01/27 07:40:44;;;;;;;52.40;26.13;;;0.80;99.90;;;;;;5033758;28;20833;-67
2022/01/27 07:43:11;;;;;;;45.60;25.27;;;0.80;99.90;;;;;;5033729;28;20489;-67
2022/01/27 07:45:38;;;;;;;45.20;24.87;;;0.70;99.90;;;;;;5033786;28;20453;-66
2022/01/27 07:48:05;;;;;;;45.93;24.40;;;0.70;99.90;;;;;;5033878;28;20483;-66
2022/01/27 07:50:34;;;;;;;42.13;24.13;;;0.70;99.90;;;;;;5033843;28;20509;-68
2022/01/27 07:53:01;;;;;;;43.70;25.10;;;0.60;99.90;;;;;;5033791;28;20452;-68
2022/01/27 07:55:28;;;;;;;49.20;25.60;;;0.60;99.90;;;;;;5033758;28;20543;-67
2022/01/27 07:57:54;;;;;;;50.37;26.50;;;0.60;99.90;;;;;;5033611;28;20456;-68
2022/01/27 08:00:21;;;;;;;54.10;28.10;;;0.60;99.90;;;;;;5036902;28;20844;-67
2022/01/27 08:02:48;;;;;;;57.27;29.17;;;0.60;99.90;;;;;;5037915;28;20437;-67
2022/01/27 08:05:15;;;;;;;50.50;28.50;;;0.50;99.90;;;;;;5037782;28;20478;-67
2022/01/27 08:07:43;;;;;;;60.20;30.77;;;0.50;99.90;;;;;;5037480;28;20456;-67
2022/01/27 08:10:10;;;;;;;53.27;27.57;;;0.50;99.90;;;;;;5037127;28;20455;-67
2022/01/27 08:12:41;;;;;;;59.63;30.13;;;0.50;99.90;;;;;;5037537;28;20468;-67
2022/01/27 08:15:08;;;;;;;57.77;28.20;;;0.50;99.90;;;;;;5037195;28;20436;-67
2022/01/27 08:17:35;;;;;;;61.87;29.60;;;0.50;99.90;;;;;;5036929;28;20479;-67
2022/01/27 08:20:02;;;;;;;53.83;26.70;;;0.50;99.90;;;;;;5037138;28;20461;-67
2022/01/27 08:22:28;;;;;;;60.63;29.17;;;0.60;99.90;;;;;;5036476;28;20472;-66
2022/01/27 08:24:57;;;;;;;60.17;28.27;;;0.50;99.90;;;;;;5036652;28;20947;-66
2022/01/27 08:27:28;;;;;;;57.60;29.30;;;0.50;99.90;;;;;;5036737;28;20464;-67
2022/01/27 08:30:00;;;;;;;60.03;28.70;;;0.50;99.90;;;;;;5036500;28;20443;-66
2022/01/27 08:32:39;;;;;;;67.30;30.17;;;0.50;99.90;;;;;;5037021;28;20476;-66
2022/01/27 08:35:07;;;;;;;57.70;29.50;;;0.50;99.90;;;;;;5036444;28;20986;-67
2022/01/27 08:37:33;;;;;;;58.77;26.97;;;0.50;99.90;;;;;;5036550;28;20480;-67
2022/01/27 08:40:02;;;;;;;65.53;31.20;;;0.40;99.90;;;;;;5037303;28;20452;-66
2022/01/27 08:42:28;;;;;;;57.20;27.87;;;0.40;99.90;;;;;;5038478;28;20476;-67
2022/01/27 08:44:55;;;;;;;62.83;31.10;;;0.40;99.90;;;;;;5037026;28;20453;-66
2022/01/27 08:47:22;;;;;;;60.57;29.90;;;0.30;99.90;;;;;;5037052;28;20433;-66
2022/01/27 08:49:49;;;;;;;60.30;29.53;;;0.20;99.90;;;;;;5036352;28;20455;-66
2022/01/27 08:52:16;;;;;;;55.67;27.33;;;0.30;99.90;;;;;;5036632;28;20559;-66
2022/01/27 08:54:43;;;;;;;51.37;27.63;;;0.30;99.90;;;;;;5036245;28;20456;-66
2022/01/27 08:57:12;;;;;;;58.33;26.83;;;0.20;99.90;;;;;;5036662;28;20551;-67
2022/01/27 08:59:39;;;;;;;49.27;24.60;;;0.20;99.90;;;;;;5036261;28;20536;-66
2022/01/27 09:02:06;;;;;;;47.50;25.20;;;0.10;99.90;;;;;;5035913;28;21018;-66
2022/01/27 09:04:32;;;;;;;49.27;25.07;;;0.00;99.90;;;;;;5036169;28;20456;-66
2022/01/27 09:06:59;;;;;;;45.50;24.23;;;0.00;99.90;;;;;;5035813;28;20456;-66
2022/01/27 09:09:26;;;;;;;49.53;23.83;;;0.00;99.90;;;;;;5036194;28;20461;-67
2022/01/27 09:11:55;;;;;;;42.70;22.90;;;0.00;99.90;;;;;;5034986;28;20476;-67
2022/01/27 09:14:28;;;;;;;43.33;22.40;;;0.00;99.90;;;;;;5036480;28;20551;-67
2022/01/27 09:16:54;;;;;;;37.50;21.30;;;0.10;99.90;;;;;;5036418;28;20462;-67
2022/01/27 09:19:21;;;;;;;40.97;20.80;;;0.20;99.90;;;;;;5036836;28;20457;-68
2022/01/27 09:21:48;;;;;;;40.20;19.87;;;0.30;99.90;;;;;;5036335;28;20483;-67
2022/01/27 09:24:18;;;;;;;36.53;19.20;;;0.40;99.90;;;;;;5036393;28;20455;-67
2022/01/27 09:26:52;;;;;;;40.90;20.77;;;0.50;99.90;;;;;;5036414;28;20514;-67
2022/01/27 09:29:21;;;;;;;41.97;23.83;;;0.70;99.90;;;;;;5036239;28;20448;-66
2022/01/27 09:31:50;;;;;;;31.37;18.23;;;0.70;99.90;;;;;;5035916;28;20472;-66
2022/01/27 09:34:18;;;;;;;35.40;20.80;;;0.70;99.90;;;;;;5036973;28;20453;-66
2022/01/27 09:36:46;;;;;;;33.27;19.00;;;0.60;99.90;;;;;;5038177;28;20484;-67
2022/01/27 09:39:14;;;;;;;33.27;19.30;;;0.80;99.90;;;;;;5037667;28;20449;-67
2022/01/27 09:41:42;;;;;;;30.90;18.80;;;0.80;99.90;;;;;;5037185;28;20550;-67
2022/01/27 09:44:12;;;;;;;28.47;17.33;;;0.70;99.90;;;;;;5036387;28;20463;-67
2022/01/27 09:46:41;;;;;;;28.97;15.60;;;0.90;99.90;;;;;;5036561;28;20524;-67
2022/01/27 09:49:14;;;;;;;29.70;18.10;;;1.00;99.90;;;;;;5035624;28;21023;-66
2022/01/27 09:51:44;;;;;;;31.23;17.47;;;1.10;99.90;;;;;;5036286;28;20994;-67
2022/01/27 09:54:11;;;;;;;26.67;15.27;;;1.10;99.90;;;;;;5035435;28;20456;-69
2022/01/27 09:56:40;;;;;;;25.80;15.50;;;1.30;99.90;;;;;;5035512;28;20484;-68
2022/01/27 09:59:08;;;;;;;26.03;15.40;;;1.20;99.90;;;;;;5034985;28;20457;-65
2022/01/27 10:01:35;;;;;;;26.73;15.33;;;1.30;99.90;;;;;;5035159;28;20483;-67
2022/01/27 10:04:04;;;;;;;20.37;13.80;;;1.40;99.90;;;;;;5035706;28;20459;-67
2022/01/27 10:06:34;;;;;;;23.40;14.00;;;1.40;99.90;;;;;;5034796;28;20947;-66
2022/01/27 10:09:19;;;;;;;25.70;14.93;;;1.60;99.90;;;;;;5035298;28;20494;-68
2022/01/27 10:11:48;;;;;;;25.90;14.90;;;1.70;99.90;;;;;;5034846;28;20967;-66
2022/01/27 10:14:20;;;;;;;22.50;13.43;;;1.70;99.90;;;;;;5038784;28;20448;-66
2022/01/27 10:16:49;;;;;;;22.50;14.47;;;1.80;99.90;;;;;;5041516;28;20477;-66
2022/01/27 10:19:16;;;;;;;28.33;15.87;;;1.80;99.90;;;;;;5034613;28;20466;-66
2022/01/27 10:21:44;;;;;;;22.87;14.67;;;1.90;99.90;;;;;;5034291;28;20478;-66
2022/01/27 10:24:18;;;;;;;23.03;14.23;;;1.90;99.90;;;;;;5033683;28;20962;-66
2022/01/27 10:26:52;;;;;;;22.67;13.80;;;2.00;99.90;;;;;;5034309;28;20923;-67
2022/01/27 10:29:31;;;;;;;18.10;12.50;;;2.00;99.90;;;;;;5034339;28;20900;-66
2022/01/27 10:32:02;;;;;;;20.30;13.60;;;2.10;99.90;;;;;;5034493;28;20476;-67
2022/01/27 10:34:29;;;;;;;19.40;12.10;;;2.20;99.90;;;;;;5034306;28;20436;-66
2022/01/27 10:36:57;;;;;;;19.10;12.83;;;2.30;99.90;;;;;;5034335;28;20481;-67
2022/01/27 10:39:24;;;;;;;19.83;12.17;;;2.40;99.90;;;;;;5034231;28;20463;-67
2022/01/27 10:42:00;;;;;;;20.00;11.80;;;2.50;99.90;;;;;;5034274;28;20530;-68
2022/01/27 10:44:34;;;;;;;21.87;12.37;;;2.60;99.90;;;;;;5034240;28;20490;-68
2022/01/27 10:47:06;;;;;;;17.27;11.60;;;2.70;99.90;;;;;;5034132;28;21006;-67
2022/01/27 10:49:36;;;;;;;21.10;11.57;;;2.70;99.90;;;;;;5034131;28;20527;-68
2022/01/27 10:52:05;;;;;;;19.60;12.93;;;2.70;99.90;;;;;;5033842;28;20991;-67
2022/01/27 10:54:38;;;;;;;17.43;11.73;;;2.70;99.90;;;;;;5034193;28;20484;-67
2022/01/27 10:57:07;;;;;;;19.37;12.70;;;2.70;99.90;;;;;;5033987;28;20491;-67
2022/01/27 10:59:34;;;;;;;21.20;11.57;;;2.80;99.90;;;;;;5033890;28;20453;-68
2022/01/27 11:02:06;;;;;;;16.43;10.97;;;2.80;99.90;;;;;;5033510;28;20492;-67
2022/01/27 11:04:34;;;;;;;20.03;12.70;;;2.80;99.90;;;;;;5033915;28;20440;-66
2022/01/27 11:07:04;;;;;;;16.27;11.23;;;2.80;99.90;;;;;;5033810;28;20920;-67
2022/01/27 11:09:35;;;;;;;16.50;10.33;;;2.80;99.90;;;;;;5033910;28;20460;-67
2022/01/27 11:12:06;;;;;;;16.40;10.23;;;2.70;99.90;;;;;;5033616;28;20890;-66
2022/01/27 11:14:34;;;;;;;17.57;10.10;;;2.80;99.90;;;;;;5033733;28;20904;-67
2022/01/27 11:17:02;;;;;;;17.50;11.87;;;2.80;99.90;;;;;;5033772;28;20507;-67
2022/01/27 11:22:41;;;;;;;16.50;10.33;;;2.90;99.90;;;;;;5008100;28;20463;-68
2022/01/27 11:25:49;;;;;;;17.43;11.33;;;2.90;99.90;;;;;;5033886;28;20459;-69
2022/01/27 11:28:00;;;;;;;16.70;11.40;;;3.00;99.90;;;;;;5033417;28;20451;-68
2022/01/27 11:30:37;;;;;;;12.63;9.60;;;3.00;99.90;;;;;;5033718;28;20437;-67
2022/01/27 11:33:07;;;;;;;15.47;11.30;;;3.00;99.90;;;;;;5033502;28;20903;-67
2022/01/27 11:35:33;;;;;;;16.80;11.40;;;3.00;99.90;;;;;;5037623;28;20463;-68
2022/01/27 11:38:04;;;;;;;16.23;11.43;;;3.10;99.90;;;;;;5037684;28;20476;-68
2022/01/27 11:40:37;;;;;;;15.20;10.53;;;3.00;99.90;;;;;;5037690;28;20494;-68
2022/01/27 11:43:10;;;;;;;15.57;10.87;;;3.00;99.90;;;;;;5037777;28;20437;-68
2022/01/27 11:45:40;;;;;;;17.30;11.43;;;3.10;99.90;;;;;;5037952;28;20432;-68
2022/01/27 11:48:10;;;;;;;16.10;11.47;;;3.10;99.90;;;;;;5039869;28;20455;-68
2022/01/27 11:50:51;;;;;;;15.93;12.20;;;3.20;99.90;;;;;;5037709;28;20526;-67
2022/01/27 11:53:32;;;;;;;15.50;11.70;;;3.30;99.90;;;;;;5038448;28;20436;-67
2022/01/27 11:56:00;;;;;;;19.10;11.10;;;3.40;99.90;;;;;;5037726;28;20440;-68
2022/01/27 11:58:29;;;;;;;20.30;12.23;;;3.40;99.90;;;;;;5037469;28;20484;-67
2022/01/27 12:01:14;;;;;;;15.23;10.93;;;3.50;99.90;;;;;;5037006;28;20489;-67
2022/01/27 12:04:01;;;;;;;19.20;11.90;;;3.50;99.90;;;;;;5037111;28;20904;-67
2022/01/27 12:06:28;;;;;;;21.50;12.03;;;3.60;99.90;;;;;;5036729;28;20802;-68
2022/01/27 12:09:29;;;;;;;15.70;10.90;;;3.60;99.90;;;;;;5037119;28;20452;-68
2022/01/27 12:11:58;;;;;;;16.27;11.40;;;3.50;99.90;;;;;;5037084;28;20507;-68
2022/01/27 12:14:29;;;;;;;15.47;10.70;;;3.60;99.90;;;;;;5037116;28;20452;-66
2022/01/27 12:17:21;;;;;;;16.00;10.67;;;3.50;99.90;;;;;;5036995;28;20539;-68
2022/01/27 12:19:48;;;;;;;17.27;11.23;;;3.60;99.90;;;;;;5038832;28;20459;-67
2022/01/27 12:22:16;;;;;;;17.37;10.77;;;3.70;99.90;;;;;;5037262;28;20476;-66
2022/01/27 12:24:54;;;;;;;14.30;10.10;;;3.70;99.90;;;;;;5037024;28;20506;-68
2022/01/27 12:27:22;;;;;;;15.30;11.30;;;3.80;99.90;;;;;;5038042;28;20447;-68
2022/01/27 12:29:51;;;;;;;14.07;10.70;;;3.90;99.90;;;;;;5039999;28;20463;-67
2022/01/27 12:32:23;;;;;;;17.43;10.93;;;3.90;99.90;;;;;;5037801;28;20480;-67
2022/01/27 12:34:51;;;;;;;19.17;10.60;;;3.80;99.90;;;;;;5037784;28;20778;-68
2022/01/27 12:37:20;;;;;;;15.43;11.30;;;3.90;99.90;;;;;;5037239;28;21013;-67
2022/01/27 12:39:54;;;;;;;17.90;11.53;;;3.90;99.90;;;;;;5037573;28;20456;-67
2022/01/27 12:42:24;;;;;;;16.50;10.80;;;3.90;99.90;;;;;;5037287;28;20495;-68
2022/01/27 12:44:56;;;;;;;18.07;11.30;;;4.00;99.90;;;;;;5037112;28;20487;-67
2022/01/27 12:47:24;;;;;;;18.00;11.60;;;4.00;99.90;;;;;;5036645;28;20448;-67
2022/01/27 12:50:02;;;;;;;18.37;11.73;;;4.10;99.90;;;;;;5037229;28;20460;-66
2022/01/27 12:52:31;;;;;;;13.70;10.03;;;4.10;99.90;;;;;;5036947;28;20837;-66
2022/01/27 12:54:59;;;;;;;13.60;11.27;;;4.20;99.90;;;;;;5036868;28;20437;-66
2022/01/27 12:57:27;;;;;;;15.37;10.90;;;4.20;99.90;;;;;;5036615;28;21024;-67
2022/01/27 12:59:56;;;;;;;13.80;10.40;;;4.30;99.90;;;;;;5036560;28;20459;-67
2022/01/27 13:02:24;;;;;;;18.07;13.03;;;4.10;99.90;;;;;;5036037;28;20481;-67
2022/01/27 13:04:54;;;;;;;18.37;11.43;;;4.20;99.90;;;;;;5036224;28;20452;-67
2022/01/27 13:07:22;;;;;;;16.97;11.27;;;4.20;99.90;;;;;;5036380;28;20440;-67
2022/01/27 13:09:57;;;;;;;13.50;10.60;;;4.20;99.90;;;;;;5036409;28;20444;-67
2022/01/27 13:12:30;;;;;;;15.07;11.93;;;4.30;99.90;;;;;;5037132;28;20585;-67
2022/01/27 13:15:07;;;;;;;16.33;11.70;;;4.30;99.90;;;;;;5036278;28;20495;-67
2022/01/27 13:17:42;;;;;;;15.67;10.60;;;4.30;99.90;;;;;;5036501;28;20487;-67
2022/01/27 13:20:18;;;;;;;15.63;11.13;;;4.40;99.90;;;;;;5037667;28;20990;-67
2022/01/27 13:22:53;;;;;;;17.73;11.50;;;4.50;99.90;;;;;;5036082;28;20451;-67
2022/01/27 13:25:22;;;;;;;17.40;12.17;;;4.50;99.90;;;;;;5035985;28;20475;-67
2022/01/27 13:28:11;;;;;;;17.27;11.70;;;4.60;99.90;;;;;;5035902;28;20485;-67
2022/01/27 13:30:39;;;;;;;15.10;11.27;;;4.60;99.90;;;;;;5035925;28;20479;-69
2022/01/27 13:33:09;;;;;;;19.20;10.40;;;4.70;99.90;;;;;;5036140;28;20459;-68
2022/01/27 13:35:36;;;;;;;13.30;10.23;;;4.90;99.90;;;;;;5035741;28;20451;-69
2022/01/27 13:38:20;;;;;;;15.90;11.50;;;5.50;99.90;;;;;;5035694;28;20841;-70
2022/01/27 13:43:39;;;;;;;13.03;9.63;;;6.30;99.90;;;;;;5035915;28;20875;-71
2022/01/27 13:46:06;;;;;;;15.03;10.57;;;6.70;99.90;;;;;;5035667;28;20437;-70
2022/01/27 13:48:43;;;;;;;12.77;10.20;;;6.90;99.90;;;;;;5035881;28;20456;-69
2022/01/27 13:51:18;;;;;;;12.00;9.70;;;7.10;99.90;;;;;;5035667;28;20507;-69
2022/01/27 13:53:58;;;;;;;16.17;12.00;;;7.10;99.90;;;;;;5037267;28;20436;-69
2022/01/27 13:56:25;;;;;;;15.47;11.20;;;6.70;99.90;;;;;;5035610;28;20440;-68
2022/01/27 13:59:09;;;;;;;13.17;11.00;;;6.50;99.90;;;;;;5035130;28;20460;-69
2022/01/27 14:01:36;;;;;;;13.73;10.90;;;6.40;99.90;;;;;;5035421;28;20894;-69
2022/01/27 14:04:03;;;;;;;15.73;12.50;;;6.30;99.90;;;;;;5035620;28;20506;-69
2022/01/27 14:06:30;;;;;;;17.80;12.60;;;6.00;99.90;;;;;;5035115;28;20464;-69
2022/01/27 14:08:58;;;;;;;13.53;10.87;;;5.90;99.90;;;;;;5034966;28;20932;-68
2022/01/27 14:11:33;;;;;;;14.17;10.73;;;5.80;99.90;;;;;;5035233;28;20475;-69
2022/01/27 14:14:01;;;;;;;14.40;11.43;;;5.70;99.90;;;;;;5034951;28;20436;-69
2022/01/27 14:16:32;;;;;;;13.90;10.50;;;5.60;99.90;;;;;;5034843;28;20452;-69
2022/01/27 14:19:10;;;;;;;13.93;11.13;;;5.50;99.90;;;;;;5034290;28;20979;-70
2022/01/27 14:21:42;;;;;;;16.97;11.73;;;5.50;99.90;;;;;;5034710;28;20487;-69
2022/01/27 14:24:10;;;;;;;13.90;10.27;;;5.40;99.90;;;;;;5034304;28;20799;-69
2022/01/27 14:26:41;;;;;;;14.73;11.53;;;5.40;99.90;;;;;;5034647;28;20456;-69
2022/01/27 14:29:09;;;;;;;12.80;10.40;;;5.40;99.90;;;;;;5034719;28;20531;-69
2022/01/27 14:31:39;;;;;;;18.77;12.47;;;5.40;99.90;;;;;;5034015;28;21010;-69
2022/01/27 14:34:06;;;;;;;17.90;11.73;;;5.40;99.90;;;;;;5035246;28;20457;-69
2022/01/27 14:36:34;;;;;;;15.87;10.80;;;5.40;99.90;;;;;;5034419;28;20460;-69
2022/01/27 14:39:02;;;;;;;13.93;10.00;;;5.40;99.90;;;;;;5034216;28;20979;-70
2022/01/27 14:41:29;;;;;;;14.67;9.77;;;5.40;99.90;;;;;;5034214;28;20842;-70
2022/01/27 14:43:56;;;;;;;15.63;11.10;;;5.40;99.90;;;;;;5034430;28;20528;-70
2022/01/27 14:46:28;;;;;;;15.73;11.20;;;5.30;99.90;;;;;;5034140;28;20452;-70
2022/01/27 14:48:59;;;;;;;11.83;9.47;;;5.30;99.90;;;;;;5035006;28;20437;-70
2022/01/27 14:51:28;;;;;;;13.07;11.50;;;5.30;99.90;;;;;;5039703;28;20526;-70
2022/01/27 14:53:55;;;;;;;12.23;10.20;;;5.40;99.90;;;;;;5036418;28;20491;-70
2022/01/27 14:56:22;;;;;;;13.87;10.40;;;5.30;99.90;;;;;;5034265;28;20463;-70
2022/01/27 14:58:50;;;;;;;14.30;10.50;;;5.30;99.90;;;;;;5034197;28;20508;-70
2022/01/27 15:01:17;;;;;;;16.27;10.70;;;5.30;99.90;;;;;;5033698;28;20525;-70
2022/01/27 15:03:44;;;;;;;14.67;11.60;;;5.20;99.90;;;;;;5034959;28;20452;-72
2022/01/27 15:06:14;;;;;;;15.37;11.00;;;5.20;99.90;;;;;;5034474;28;20506;-71
2022/01/27 15:08:41;;;;;;;19.07;12.23;;;5.20;99.90;;;;;;5033832;28;20452;-71
2022/01/27 15:11:07;;;;;;;19.10;11.83;;;5.30;99.90;;;;;;5034528;28;20476;-71
2022/01/27 15:13:41;;;;;;;15.43;11.20;;;5.20;99.90;;;;;;5034264;28;20460;-69
2022/01/27 15:18:59;;;;;;;18.03;11.93;;;5.30;99.90;;;;;;5034127;28;20591;-70
2022/01/27 15:21:27;;;;;;;14.50;10.40;;;5.30;99.90;;;;;;5034246;28;20472;-70
2022/01/27 15:23:54;;;;;;;16.47;11.50;;;5.40;99.90;;;;;;5033924;28;20963;-70
2022/01/27 15:26:21;;;;;;;16.53;11.90;;;5.40;99.90;;;;;;5034308;28;20464;-71
2022/01/27 15:28:47;;;;;;;16.90;10.60;;;5.50;99.90;;;;;;5034202;28;20463;-71
2022/01/27 15:31:15;;;;;;;16.30;12.50;;;5.50;99.90;;;;;;5034135;28;20478;-70
2022/01/27 15:33:42;;;;;;;20.67;12.90;;;5.50;99.90;;;;;;5033944;28;20556;-70
2022/01/27 15:36:10;;;;;;;16.70;12.40;;;5.50;99.90;;;;;;5033712;28;20814;-70
2022/01/27 15:38:38;;;;;;;16.40;12.77;;;5.50;99.90;;;;;;5033606;28;20835;-70
2022/01/27 15:41:07;;;;;;;20.40;13.00;;;5.50;99.90;;;;;;5033577;28;20479;-69
2022/01/27 15:43:34;;;;;;;16.37;12.03;;;5.50;99.90;;;;;;5033683;28;20460;-69
2022/01/27 15:46:01;;;;;;;15.93;11.83;;;5.50;99.90;;;;;;5033528;28;20459;-71
2022/01/27 15:48:28;;;;;;;19.03;12.03;;;5.50;99.90;;;;;;5034465;28;20452;-71
2022/01/27 15:50:55;;;;;;;16.50;12.93;;;5.50;99.90;;;;;;5033434;28;20476;-70
2022/01/27 15:53:22;;;;;;;19.03;13.67;;;5.50;99.90;;;;;;5033667;28;20456;-71
2022/01/27 15:55:50;;;;;;;18.97;12.80;;;5.40;99.90;;;;;;5033554;28;20455;-70
2022/01/27 15:58:17;;;;;;;18.23;14.13;;;5.30;99.90;;;;;;5033551;28;20460;-71
2022/01/27 16:00:44;;;;;;;22.37;13.27;;;5.30;99.90;;;;;;5032982;28;20571;-71
2022/01/27 16:03:11;;;;;;;18.73;13.30;;;5.30;99.90;;;;;;5033227;28;20835;-70
2022/01/27 16:05:38;;;;;;;14.77;12.77;;;5.30;99.90;;;;;;5033117;28;20452;-70
2022/01/27 16:08:05;;;;;;;19.57;14.20;;;5.20;99.90;;;;;;5033750;28;20436;-70
2022/01/27 16:10:32;;;;;;;19.80;14.20;;;5.20;99.90;;;;;;5034353;28;20452;-71
2022/01/27 16:13:00;;;;;;;25.60;14.33;;;5.20;99.90;;;;;;5033109;28;20943;-71
2022/01/27 16:15:28;;;;;;;18.23;12.60;;;5.20;99.90;;;;;;5033557;28;20460;-70
2022/01/27 16:17:55;;;;;;;19.80;13.50;;;5.20;99.90;;;;;;5033457;28;20793;-70
2022/01/27 16:20:23;;;;;;;21.63;14.53;;;5.20;99.90;;;;;;5034531;28;20488;-71
2022/01/27 16:22:53;;;;;;;22.77;14.67;;;5.20;99.90;;;;;;5037292;28;20451;-70
2022/01/27 16:25:20;;;;;;;20.50;14.37;;;5.20;99.90;;;;;;5037065;28;20943;-70
2022/01/27 16:27:47;;;;;;;21.47;15.63;;;5.20;99.90;;;;;;5036968;28;20468;-70
2022/01/27 16:30:16;;;;;;;21.70;14.97;;;5.20;99.90;;;;;;5036869;28;20437;-69
2022/01/27 16:32:43;;;;;;;22.30;14.90;;;5.10;99.90;;;;;;5036369;28;20479;-70
2022/01/27 16:35:10;;;;;;;20.93;13.40;;;5.10;99.90;;;;;;5036519;28;20452;-69
2022/01/27 16:37:37;;;;;;;20.77;15.20;;;5.10;99.90;;;;;;5036359;28;20943;-70
2022/01/27 16:40:05;;;;;;;22.80;14.77;;;5.10;99.90;;;;;;5036315;28;20475;-70
2022/01/27 16:42:32;;;;;;;25.53;15.40;;;5.10;99.90;;;;;;5036323;28;20476;-70
2022/01/27 16:44:58;;;;;;;22.77;15.87;;;5.00;99.90;;;;;;5036548;28;20479;-69
2022/01/27 16:47:26;;;;;;;26.23;16.40;;;5.00;99.90;;;;;;5036379;28;20457;-70
2022/01/27 16:49:54;;;;;;;25.40;15.43;;;4.80;99.90;;;;;;5036372;28;20452;-69
2022/01/27 16:52:23;;;;;;;28.03;15.37;;;4.80;99.90;;;;;;5036268;28;20563;-69
2022/01/27 16:54:50;;;;;;;25.53;15.87;;;4.80;99.90;;;;;;5036361;28;20502;-71
2022/01/27 16:57:17;;;;;;;26.37;15.33;;;4.80;99.90;;;;;;5036359;28;20452;-70
2022/01/27 16:59:45;;;;;;;22.70;15.80;;;4.80;99.90;;;;;;5036359;28;20480;-71
2022/01/27 17:02:12;;;;;;;23.20;15.30;;;4.80;99.90;;;;;;5035640;28;20523;-70
2022/01/27 17:04:43;;;;;;;26.30;15.33;;;4.80;99.90;;;;;;5036157;28;20452;-70
2022/01/27 17:07:11;;;;;;;30.80;16.87;;;4.80;99.90;;;;;;5036180;28;20447;-70
2022/01/27 17:09:37;;;;;;;24.60;16.20;;;4.80;99.90;;;;;;5035974;28;20462;-69
2022/01/27 17:12:05;;;;;;;27.40;18.47;;;4.80;99.90;;;;;;5035883;28;20472;-69
2022/01/27 17:14:31;;;;;;;27.50;17.50;;;4.80;99.90;;;;;;5035621;28;20464;-69
2022/01/27 17:16:58;;;;;;;28.40;15.70;;;4.80;99.90;;;;;;5035734;28;20456;-70
2022/01/27 17:19:25;;;;;;;29.37;17.63;;;4.90;99.90;;;;;;5036643;28;20473;-69
2022/01/27 17:21:59;;;;;;;28.83;17.77;;;4.90;99.90;;;;;;5035555;28;20472;-68
2022/01/27 17:24:26;;;;;;;33.50;18.97;;;4.90;99.90;;;;;;5035811;28;20441;-70
2022/01/27 17:26:53;;;;;;;32.23;20.40;;;4.90;99.90;;;;;;5035770;28;20456;-70
2022/01/27 17:29:20;;;;;;;30.77;18.70;;;4.90;99.90;;;;;;5035857;28;20795;-69
2022/01/27 17:31:46;;;;;;;33.03;19.30;;;4.90;99.90;;;;;;5034888;28;21003;-68
2022/01/27 17:34:13;;;;;;;25.10;16.90;;;4.90;99.90;;;;;;5035770;28;20456;-69
2022/01/27 17:36:41;;;;;;;30.40;18.80;;;4.90;99.90;;;;;;5035761;28;20457;-69
2022/01/27 17:39:10;;;;;;;34.97;19.00;;;4.90;99.90;;;;;;5035453;28;20476;-70
2022/01/27 17:41:39;;;;;;;40.47;19.40;;;4.90;99.90;;;;;;5035370;28;20523;-69
2022/01/27 17:44:12;;;;;;;34.90;19.80;;;4.90;99.90;;;;;;5035262;28;20482;-70
2022/01/27 17:46:40;;;;;;;27.27;17.80;;;4.90;99.90;;;;;;5035646;28;20527;-69
2022/01/27 17:49:08;;;;;;;32.03;17.50;;;4.90;99.90;;;;;;5034985;28;20456;-69
2022/01/27 17:51:35;;;;;;;24.37;15.80;;;4.90;99.90;;;;;;5035109;28;20567;-70
2022/01/27 17:54:02;;;;;;;14.53;10.37;;;4.90;99.90;;;;;;5035169;28;20456;-69
2022/01/27 17:56:31;;;;;;;14.70;10.37;;;4.90;99.90;;;;;;5035461;28;20452;-68